Greenway, New York
Current Conditions -  °F | °C
As of 1:53 AM on Thursday 27 Nov 2014 (Local Time) from KRME Reporting Station
Light Snow Light Snow  
Wind Chill: 21°   Ceiling: 1400
Heat Index: 28°   Visibility: 2mi
Dew Point: 27°   Wind: 7mph
Humidity: 96%   Direction: 280°W
Pressure: 29.98"   Gusts: NA
Location:  43.2466°N, 75.4624°W
Report Text: KRME 270653Z AUTO 28006KT 2SM -SN BR BKN014 OVC020 M02/M03 A2998 RMK AO2 SLP156 P0000 T10221028
Loading
Personal Weather Stations






























Interactive Weather Map New forecast layout! Learn more

10-Day Weather Forecast

Advertisements
Track Severe Weather on mobile